Terminal Aerodrome Forecast
Issued by NWS Jackson, MS

Home | Current Version | Previous Version | Text Only | Print | Product List | Glossary On
Versions: 1 2 3 4 5 6 7 8 9 10 11 12 13 14 15 16
465
FTUS44 KJAN 231456 AAA
TAFJAN
TAF AMD
KJAN 231456Z 2315/2412 30012G18KT P6SM SCT020 BKN035
     FM232200 29006KT P6SM SKC=

USA.gov is the U.S. government's official web portal to all federal, state and local government web resources and services.